Startpagina
METAR-TAF:

METAR-TAF

Vliegvelden :

Huesca, Spanje

breedte: 42-04-32N, lengte: 0-18-58W, hoogte: 539 m

Actueel weer

Dit bericht is 38 minuten geleden gemaakt, om 02:30 UTC
Wind 9 kt uit het oostnoordoosten
Temperatuur 18°C
Vochtigheid 83%
Druk 1017 hPa
Zicht 10 km of meer
Verspreide wolken op 5000 ft
Gebroken wolken op 6000 ft

METAR: LEHC 210230Z AUTO 07009KT 9999 SCT050 BKN060 18/15 Q1017

Tijdstip: 05:08 (03:08 UTC)

Verwachting

Dit bericht is 1 uur en het 8 minuten geleden gemaakt, om 02:00 UTC
Verwachting geldig van 21 om 03 UTC tot 22 om 03 UTC
Wind 10 kt uit het oosten
Zicht 10 km of meer
Verspreide wolken op 3000 ft
Kans 40% :
Tijdelijke
van 21 om 03 UTC tot 21 om 21 UTC
Wind 15 kt uit het oosten met uitschieters tot 25 kt
Zicht: 3000 m
Gebroken wolken op 1200 ft
Verspreide wolken op 3000 ft, Cumulonimbus.
Gebroken wolken op 4000 ft
onweer, regen

TAF: LEHC 210200Z 2103/2203 09010KT 9999 SCT030 TX23/2114Z TN16/2105Z PROB40 TEMPO 2103/2121 09015G25KT 3000 TSRA BKN012 SCT030CB BKN040

Waarnemingen en weersverwachtingen van meer dan 4000 vliegvelden (METAR en TAF).

De beschikbare stations zijn de gele en rode punten op de kaart.

Ga met uw muis naar het station om de naam te zien.

Klik dan om waarnemingen en weersverwachtingen te zien.

kaart wijzigen: klik op de groene knoppen met een zwart kruis om in te zoomen, op de groene knop met een streepje om uit te zoomen of op de groene pijlen voor aangrenzende kaarten.


METAR-TAF: